Teruhou Maru No.22 — JD3202 — position and weather

sailwx.info

Track history (hours):
 
Tides and Currents Weather Stations Pressure Air Temp Water Temp Dewpoint Dewpoint Depression Visibility Wind Speed Wind Dir Waves Ship Positions

Teruhou Maru No.22

Last reported at 2016-Jul-22 16:28 UTC. Time now 2016-Jul-24 04:58 UTC.
Position N 35°03' E 139°34'.

Length 76 m; draft 5 m.

Type: Cargo ship. MMSI: 431002552.

Date/timePositionNaut miles runAvg speedWind from/ knotsBaromVisibWave heightAir tempDewpointWater temp
2016-Jul-22 16:28N 35°03' E 139°34'1213.0
2016-Jul-22 15:33N 35°11' E 139°45'1211.7
2016-Jul-22 14:33N 35°23' E 139°42'8 3.7
2016-Jul-22 12:31N 35°21' E 139°51'0 0.1
2016-Jul-22 11:31N 35°21' E 139°51'0 0.0
2016-Jul-22 08:29N 35°21' E 139°51'0 0.0
2016-Jul-21 23:07N 35°21' E 139°51'0 0.2
2016-Jul-21 22:32N 35°21' E 139°51'2 1.5
2016-Jul-21 21:33N 35°22' E 139°53'0 0.0
2016-Jul-21 20:33N 35°22' E 139°53'0 0.0
2016-Jul-21 19:33N 35°22' E 139°53'0 0.0
2016-Jul-21 18:30N 35°22' E 139°53'0 0.0
2016-Jul-21 17:33N 35°22' E 139°53'0 0.0
2016-Jul-21 16:30N 35°22' E 139°53'0 0.0
2016-Jul-21 15:33N 35°22' E 139°53'0 0.0
2016-Jul-21 14:33N 35°22' E 139°53'0 0.0
2016-Jul-21 13:33N 35°22' E 139°53'0 0.0
2016-Jul-21 12:33N 35°22' E 139°53'0 0.0
2016-Jul-21 11:33N 35°22' E 139°53'0 0.0
2016-Jul-21 10:33N 35°22' E 139°53'0 0.0
2016-Jul-21 09:33N 35°22' E 139°53'0 0.0
2016-Jul-21 08:33N 35°22' E 139°53'0 0.0
2016-Jul-21 07:33N 35°22' E 139°53'0 0.0
2016-Jul-21 06:33N 35°22' E 139°53'0 0.0
2016-Jul-21 05:33N 35°22' E 139°53'0 0.0
2016-Jul-21 04:33N 35°22' E 139°53'0 0.0
2016-Jul-21 03:21N 35°22' E 139°53'0 0.0
2016-Jul-21 02:27N 35°22' E 139°53'0 0.0
2016-Jul-21 01:33N 35°22' E 139°53'0 0.0
2016-Jul-21 00:33N 35°22' E 139°53'0 0.0
2016-Jul-20 23:33N 35°22' E 139°53'0 0.0
2016-Jul-20 22:33N 35°22' E 139°53'0 0.0
2016-Jul-20 21:27N 35°22' E 139°53'0 0.0
2016-Jul-20 20:30N 35°22' E 139°53'0 0.0
2016-Jul-20 19:30N 35°22' E 139°53'0 0.0
2016-Jul-20 18:33N 35°22' E 139°53'0 0.0
2016-Jul-20 17:33N 35°22' E 139°53'0 0.0
2016-Jul-20 16:33N 35°22' E 139°53'0 0.0
2016-Jul-20 15:30N 35°22' E 139°53'0 0.0
2016-Jul-20 14:33N 35°22' E 139°53'0 0.0
2016-Jul-20 13:33N 35°22' E 139°53'0 0.0
2016-Jul-20 12:33N 35°22' E 139°53'0 0.0
2016-Jul-20 11:33N 35°22' E 139°53'0 0.0
2016-Jul-20 10:33N 35°22' E 139°53'0 0.0
2016-Jul-20 09:24N 35°22' E 139°53'8 9.5
2016-Jul-20 08:33N 35°30' E 139°50'0 0.3
2016-Jul-20 07:33N 35°30' E 139°50'1111.3
2016-Jul-20 06:34N 35°39' E 139°58'1 1.5
2016-Jul-20 05:33N 35°41' E 139°57'0 0.0
2016-Jul-20 02:29N 35°41' E 139°57'0 0.0
2016-Jul-20 01:29N 35°41' E 139°57'0 0.0
2016-Jul-20 00:26N 35°41' E 139°57'0 0.0
2016-Jul-19 23:32N 35°41' E 139°57'0 0.0
2016-Jul-19 22:32N 35°41' E 139°57'0 0.0
2016-Jul-19 21:32N 35°41' E 139°57'0 0.0
2016-Jul-19 20:32N 35°41' E 139°57'0 0.0
2016-Jul-19 19:32N 35°41' E 139°57'0 0.0
2016-Jul-19 18:32N 35°41' E 139°57'0 0.0
2016-Jul-19 17:26N 35°41' E 139°57'0 0.0
2016-Jul-19 16:32N 35°41' E 139°57'0 0.0
2016-Jul-19 15:32N 35°41' E 139°57'0 0.0
2016-Jul-19 14:32N 35°41' E 139°57'0 0.0
2016-Jul-19 13:32N 35°41' E 139°57'0 0.0
2016-Jul-19 12:29N 35°41' E 139°57'0 0.0
2016-Jul-19 11:32N 35°41' E 139°57'0 0.0
2016-Jul-19 10:32N 35°41' E 139°57'0 0.0
2016-Jul-19 09:29N 35°41' E 139°57'0 0.0
2016-Jul-19 08:32N 35°41' E 139°57'4 3.9
2016-Jul-19 07:33N 35°37' E 139°58'17 5.7
2016-Jul-19 04:33N 35°27' E 139°41'0 0.0
2016-Jul-19 03:33N 35°27' E 139°41'0 0.0
2016-Jul-19 02:33N 35°27' E 139°41'0 0.0
2016-Jul-19 01:33N 35°27' E 139°41'0 0.0
2016-Jul-19 00:33N 35°27' E 139°41'0 0.0
2016-Jul-18 23:33N 35°27' E 139°41'1 1.4
2016-Jul-18 22:33N 35°27' E 139°42'0 0.4
2016-Jul-18 21:33N 35°27' E 139°42'0 0.0
2016-Jul-18 20:32N 35°27' E 139°42'0 0.0
2016-Jul-18 19:32N 35°27' E 139°42'0 0.0
2016-Jul-18 18:33N 35°27' E 139°42'0 0.0
2016-Jul-18 17:33N 35°27' E 139°42'10 9.9
2016-Jul-18 16:32N 35°17' E 139°45'244 9.7
2016-Jul-17 15:25N 34°04' E 135°02'1011.6
2016-Jul-17 14:33N 34°14' E 135°03'1312.8
2016-Jul-17 13:31N 34°26' E 135°09'1111.8
2016-Jul-17 12:33N 34°36' E 135°15'6 6.0
2016-Jul-17 11:33N 34°42' E 135°15'0 0.0
2016-Jul-17 10:33N 34°42' E 135°15'0 0.0
2016-Jul-17 09:29N 34°42' E 135°15'0 0.0
2016-Jul-17 08:23N 34°42' E 135°15'0 0.0
2016-Jul-17 07:05N 34°42' E 135°15'0 0.0
2016-Jul-17 06:29N 34°42' E 135°15'0 0.0
2016-Jul-17 04:29N 34°42' E 135°15'0 0.0
2016-Jul-17 03:29N 34°42' E 135°15'0 0.0
2016-Jul-17 02:28N 34°42' E 135°15'0 0.0
2016-Jul-17 01:29N 34°42' E 135°15'0 0.0
2016-Jul-17 00:23N 34°42' E 135°15'0 0.0
2016-Jul-16 23:29N 34°42' E 135°15'0 0.0
2016-Jul-16 22:29N 34°42' E 135°15'0 0.0
2016-Jul-16 21:29N 34°42' E 135°15'0 0.0
2016-Jul-16 20:29N 34°42' E 135°15'0 0.0
2016-Jul-16 19:29N 34°42' E 135°15'0 0.0
2016-Jul-16 18:29N 34°42' E 135°15'0 0.0
2016-Jul-16 17:29N 34°42' E 135°15'0 0.0
2016-Jul-16 16:28N 34°42' E 135°15'0 0.0
2016-Jul-16 15:23N 34°42' E 135°15'0 0.0
2016-Jul-16 14:28N 34°42' E 135°15'0 0.0
2016-Jul-16 13:16N 34°42' E 135°15'0 0.0
2016-Jul-16 12:29N 34°42' E 135°15'0 0.0
2016-Jul-16 11:29N 34°42' E 135°15'0 0.0
2016-Jul-16 10:22N 34°42' E 135°15'0 0.0
2016-Jul-16 09:22N 34°42' E 135°15'0 0.0
2016-Jul-16 08:28N 34°42' E 135°15'0 0.4
2016-Jul-16 07:32N 34°42' E 135°15'0 0.5
2016-Jul-16 06:31N 34°42' E 135°15'0 0.0
2016-Jul-16 04:31N 34°42' E 135°15'0 0.0
2016-Jul-16 03:31N 34°42' E 135°15'0 0.0
2016-Jul-16 02:31N 34°42' E 135°15'0 0.0
2016-Jul-16 01:31N 34°42' E 135°15'0 0.0
2016-Jul-16 00:31N 34°42' E 135°15'0 0.0
2016-Jul-15 23:33N 34°42' E 135°15'5 4.5
2016-Jul-15 22:33N 34°38' E 135°15'1110.7
2016-Jul-15 21:33N 34°36' E 135°03'1110.0
2016-Jul-15 20:29N 34°40' E 134°51'4 0.2
2016-Jul-14 21:28N 34°37' E 134°54'1011.2
2016-Jul-14 20:32N 34°34' E 135°05'1513.1
2016-Jul-14 19:22N 34°19' E 135°01'  
Track history (hours):
 
Tides and Currents Weather Stations Pressure Air Temp Water Temp Dewpoint Dewpoint Depression Visibility Wind Speed Wind Dir Waves Ship Positions

Teruhou Maru No.22

Last reported at 2016-Jul-22 16:28 UTC. Time now 2016-Jul-24 04:58 UTC.
Position N 35°03' E 139°34'.

Length 76 m; draft 5 m.

Type: Cargo ship. MMSI: 431002552.

Date/timePositionNaut miles runAvg speedWind from/ knotsBaromVisibWave heightAir tempDewpointWater temp
2016-Jul-22 16:28N 35°03' E 139°34'1213.0
2016-Jul-22 15:33N 35°11' E 139°45'1211.7
2016-Jul-22 14:33N 35°23' E 139°42'8 3.7
2016-Jul-22 12:31N 35°21' E 139°51'0 0.1
2016-Jul-22 11:31N 35°21' E 139°51'0 0.0
2016-Jul-22 08:29N 35°21' E 139°51'0 0.0
2016-Jul-21 23:07N 35°21' E 139°51'0 0.2
2016-Jul-21 22:32N 35°21' E 139°51'2 1.5
2016-Jul-21 21:33N 35°22' E 139°53'0 0.0
2016-Jul-21 20:33N 35°22' E 139°53'0 0.0
2016-Jul-21 19:33N 35°22' E 139°53'0 0.0
2016-Jul-21 18:30N 35°22' E 139°53'0 0.0
2016-Jul-21 17:33N 35°22' E 139°53'0 0.0
2016-Jul-21 16:30N 35°22' E 139°53'0 0.0
2016-Jul-21 15:33N 35°22' E 139°53'0 0.0
2016-Jul-21 14:33N 35°22' E 139°53'0 0.0
2016-Jul-21 13:33N 35°22' E 139°53'0 0.0
2016-Jul-21 12:33N 35°22' E 139°53'0 0.0
2016-Jul-21 11:33N 35°22' E 139°53'0 0.0
2016-Jul-21 10:33N 35°22' E 139°53'0 0.0
2016-Jul-21 09:33N 35°22' E 139°53'0 0.0
2016-Jul-21 08:33N 35°22' E 139°53'0 0.0
2016-Jul-21 07:33N 35°22' E 139°53'0 0.0
2016-Jul-21 06:33N 35°22' E 139°53'0 0.0
2016-Jul-21 05:33N 35°22' E 139°53'0 0.0
2016-Jul-21 04:33N 35°22' E 139°53'0 0.0
2016-Jul-21 03:21N 35°22' E 139°53'0 0.0
2016-Jul-21 02:27N 35°22' E 139°53'0 0.0
2016-Jul-21 01:33N 35°22' E 139°53'0 0.0
2016-Jul-21 00:33N 35°22' E 139°53'0 0.0
2016-Jul-20 23:33N 35°22' E 139°53'0 0.0
2016-Jul-20 22:33N 35°22' E 139°53'0 0.0
2016-Jul-20 21:27N 35°22' E 139°53'0 0.0
2016-Jul-20 20:30N 35°22' E 139°53'0 0.0
2016-Jul-20 19:30N 35°22' E 139°53'0 0.0
2016-Jul-20 18:33N 35°22' E 139°53'0 0.0
2016-Jul-20 17:33N 35°22' E 139°53'0 0.0
2016-Jul-20 16:33N 35°22' E 139°53'0 0.0
2016-Jul-20 15:30N 35°22' E 139°53'0 0.0
2016-Jul-20 14:33N 35°22' E 139°53'0 0.0
2016-Jul-20 13:33N 35°22' E 139°53'0 0.0
2016-Jul-20 12:33N 35°22' E 139°53'0 0.0
2016-Jul-20 11:33N 35°22' E 139°53'0 0.0
2016-Jul-20 10:33N 35°22' E 139°53'0 0.0
2016-Jul-20 09:24N 35°22' E 139°53'8 9.5
2016-Jul-20 08:33N 35°30' E 139°50'0 0.3
2016-Jul-20 07:33N 35°30' E 139°50'1111.3
2016-Jul-20 06:34N 35°39' E 139°58'1 1.5
2016-Jul-20 05:33N 35°41' E 139°57'0 0.0
2016-Jul-20 02:29N 35°41' E 139°57'0 0.0
2016-Jul-20 01:29N 35°41' E 139°57'0 0.0
2016-Jul-20 00:26N 35°41' E 139°57'0 0.0
2016-Jul-19 23:32N 35°41' E 139°57'0 0.0
2016-Jul-19 22:32N 35°41' E 139°57'0 0.0
2016-Jul-19 21:32N 35°41' E 139°57'0 0.0
2016-Jul-19 20:32N 35°41' E 139°57'0 0.0
2016-Jul-19 19:32N 35°41' E 139°57'0 0.0
2016-Jul-19 18:32N 35°41' E 139°57'0 0.0
2016-Jul-19 17:26N 35°41' E 139°57'0 0.0
2016-Jul-19 16:32N 35°41' E 139°57'0 0.0
2016-Jul-19 15:32N 35°41' E 139°57'0 0.0
2016-Jul-19 14:32N 35°41' E 139°57'0 0.0
2016-Jul-19 13:32N 35°41' E 139°57'0 0.0
2016-Jul-19 12:29N 35°41' E 139°57'0 0.0
2016-Jul-19 11:32N 35°41' E 139°57'0 0.0
2016-Jul-19 10:32N 35°41' E 139°57'0 0.0
2016-Jul-19 09:29N 35°41' E 139°57'0 0.0
2016-Jul-19 08:32N 35°41' E 139°57'4 3.9
2016-Jul-19 07:33N 35°37' E 139°58'17 5.7
2016-Jul-19 04:33N 35°27' E 139°41'0 0.0
2016-Jul-19 03:33N 35°27' E 139°41'0 0.0
2016-Jul-19 02:33N 35°27' E 139°41'0 0.0
2016-Jul-19 01:33N 35°27' E 139°41'0 0.0
2016-Jul-19 00:33N 35°27' E 139°41'0 0.0
2016-Jul-18 23:33N 35°27' E 139°41'1 1.4
2016-Jul-18 22:33N 35°27' E 139°42'0 0.4
2016-Jul-18 21:33N 35°27' E 139°42'0 0.0
2016-Jul-18 20:32N 35°27' E 139°42'0 0.0
2016-Jul-18 19:32N 35°27' E 139°42'0 0.0
2016-Jul-18 18:33N 35°27' E 139°42'0 0.0
2016-Jul-18 17:33N 35°27' E 139°42'10 9.9
2016-Jul-18 16:32N 35°17' E 139°45'244 9.7
2016-Jul-17 15:25N 34°04' E 135°02'1011.6
2016-Jul-17 14:33N 34°14' E 135°03'1312.8
2016-Jul-17 13:31N 34°26' E 135°09'1111.8
2016-Jul-17 12:33N 34°36' E 135°15'6 6.0
2016-Jul-17 11:33N 34°42' E 135°15'0 0.0
2016-Jul-17 10:33N 34°42' E 135°15'0 0.0
2016-Jul-17 09:29N 34°42' E 135°15'0 0.0
2016-Jul-17 08:23N 34°42' E 135°15'0 0.0
2016-Jul-17 07:05N 34°42' E 135°15'0 0.0
2016-Jul-17 06:29N 34°42' E 135°15'0 0.0
2016-Jul-17 04:29N 34°42' E 135°15'0 0.0
2016-Jul-17 03:29N 34°42' E 135°15'0 0.0
2016-Jul-17 02:28N 34°42' E 135°15'0 0.0
2016-Jul-17 01:29N 34°42' E 135°15'0 0.0
2016-Jul-17 00:23N 34°42' E 135°15'0 0.0
2016-Jul-16 23:29N 34°42' E 135°15'0 0.0
2016-Jul-16 22:29N 34°42' E 135°15'0 0.0
2016-Jul-16 21:29N 34°42' E 135°15'0 0.0
2016-Jul-16 20:29N 34°42' E 135°15'0 0.0
2016-Jul-16 19:29N 34°42' E 135°15'0 0.0
2016-Jul-16 18:29N 34°42' E 135°15'0 0.0
2016-Jul-16 17:29N 34°42' E 135°15'0 0.0
2016-Jul-16 16:28N 34°42' E 135°15'0 0.0
2016-Jul-16 15:23N 34°42' E 135°15'0 0.0
2016-Jul-16 14:28N 34°42' E 135°15'0 0.0
2016-Jul-16 13:16N 34°42' E 135°15'0 0.0
2016-Jul-16 12:29N 34°42' E 135°15'0 0.0
2016-Jul-16 11:29N 34°42' E 135°15'0 0.0
2016-Jul-16 10:22N 34°42' E 135°15'0 0.0
2016-Jul-16 09:22N 34°42' E 135°15'0 0.0
2016-Jul-16 08:28N 34°42' E 135°15'0 0.4
2016-Jul-16 07:32N 34°42' E 135°15'0 0.5
2016-Jul-16 06:31N 34°42' E 135°15'0 0.0
2016-Jul-16 04:31N 34°42' E 135°15'0 0.0
2016-Jul-16 03:31N 34°42' E 135°15'0 0.0
2016-Jul-16 02:31N 34°42' E 135°15'0 0.0
2016-Jul-16 01:31N 34°42' E 135°15'0 0.0
2016-Jul-16 00:31N 34°42' E 135°15'0 0.0
2016-Jul-15 23:33N 34°42' E 135°15'5 4.5
2016-Jul-15 22:33N 34°38' E 135°15'1110.7
2016-Jul-15 21:33N 34°36' E 135°03'1110.0
2016-Jul-15 20:29N 34°40' E 134°51'4 0.2
2016-Jul-14 21:28N 34°37' E 134°54'1011.2
2016-Jul-14 20:32N 34°34' E 135°05'1513.1
2016-Jul-14 19:22N 34°19' E 135°01'  

Dump ship's entire track history